Terminal Aerodrome Forecast
Issued by NWS Cleveland, OH

Home | Current Version | Previous Version | Graphics & Text | Print | Product List | Glossary On
Versions: 1 2 3 4 5 6 7 8 9 10 11 12 13 14 15 16 17 18 19 20 21 22
000
FTUS41 KCLE 241000 AAA
TAFTOL
TAF AMD
KTOL 241002Z 2410/2506 04004KT 6SM BR SCT012
      TEMPO 2410/2413 4SM BR BKN012
     FM241500 07008KT P6SM BKN020
     FM241800 07008KT P6SM SCT035 BKN250
     FM250100 08004KT P6SM SCT100=

USA.gov is the U.S. government's official web portal to all federal, state and local government web resources and services.